createdAt,value
2018-12-30T00:00:16.898Z,10.85
2018-12-30T00:00:48.046Z,11.50
2018-12-30T00:01:19.236Z,10.80
2018-12-30T00:01:50.418Z,11.40
2018-12-30T00:02:21.948Z,11.43
2018-12-30T00:02:53.426Z,11.80
2018-12-30T00:03:25.110Z,12.07
2018-12-30T00:03:56.531Z,11.93
2018-12-30T00:04:28.155Z,11.65
2018-12-30T00:04:59.695Z,10.88
2018-12-30T00:05:31.323Z,11.88
2018-12-30T00:06:02.647Z,13.25
2018-12-30T00:06:34.071Z,11.48
2018-12-30T00:07:05.534Z,12.25
2018-12-30T00:07:36.692Z,12.20
2018-12-30T00:08:07.831Z,11.30
2018-12-30T00:08:38.974Z,12.35
2018-12-30T00:09:10.130Z,11.88
2018-12-30T00:09:41.651Z,10.40
2018-12-30T00:10:12.799Z,11.28
2018-12-30T00:10:43.942Z,10.98
2018-12-30T00:11:15.092Z,11.78
2018-12-30T00:11:46.243Z,13.55
2018-12-30T00:12:17.395Z,11.33
2018-12-30T00:12:48.610Z,11.97
2018-12-30T00:13:20.240Z,11.93
2018-12-30T00:13:51.392Z,11.63
2018-12-30T00:14:22.533Z,13.50
2018-12-30T00:14:53.673Z,12.58
2018-12-30T00:15:25.100Z,12.95
2018-12-30T00:15:56.256Z,11.85
2018-12-30T00:16:27.397Z,14.03
2018-12-30T00:16:58.540Z,12.98
2018-12-30T00:17:29.683Z,14.07
2018-12-30T00:18:01.259Z,11.70
2018-12-30T00:18:32.418Z,12.05
2018-12-30T00:19:06.576Z,11.48
2018-12-30T00:19:42.408Z,13.20
2018-12-30T00:20:10.607Z,12.43
2018-12-30T00:20:41.754Z,12.47
2018-12-30T00:21:12.943Z,11.85
2018-12-30T00:21:46.438Z,14.15
2018-12-30T00:22:17.592Z,12.40
2018-12-30T00:22:48.822Z,14.10
2018-12-30T00:23:20.009Z,12.20
2018-12-30T00:23:51.163Z,10.38
2018-12-30T00:24:22.357Z,11.63
2018-12-30T00:24:53.501Z,11.38
2018-12-30T00:25:24.656Z,11.83
2018-12-30T00:25:56.142Z,11.63
2018-12-30T00:26:27.286Z,11.65
2018-12-30T00:26:58.444Z,11.30
2018-12-30T00:27:29.590Z,10.85
2018-12-30T00:28:00.738Z,11.35
2018-12-30T00:28:31.887Z,11.15
2018-12-30T00:29:03.042Z,9.50
2018-12-30T00:29:34.188Z,11.03
2018-12-30T00:30:05.336Z,11.35
2018-12-30T00:30:36.483Z,9.70
2018-12-30T00:31:08.008Z,10.98
2018-12-30T00:31:39.243Z,10.85
2018-12-30T00:32:10.383Z,10.82
2018-12-30T00:32:41.811Z,10.18
2018-12-30T00:33:12.952Z,10.10
2018-12-30T00:33:44.106Z,10.88
2018-12-30T00:34:15.259Z,10.05
2018-12-30T00:34:46.398Z,10.05
2018-12-30T00:35:17.548Z,10.95
2018-12-30T00:35:48.700Z,10.45
2018-12-30T00:36:19.917Z,11.08
2018-12-30T00:36:51.078Z,11.38
2018-12-30T00:37:22.228Z,10.53
2018-12-30T00:37:53.372Z,10.05
2018-12-30T00:38:24.795Z,10.20
2018-12-30T00:38:55.940Z,11.48
2018-12-30T00:39:27.099Z,10.48
2018-12-30T00:39:58.243Z,11.05
2018-12-30T00:40:29.438Z,11.22
2018-12-30T00:41:00.589Z,10.25
2018-12-30T00:41:31.731Z,10.15
2018-12-30T00:42:02.893Z,11.70
2018-12-30T00:42:34.041Z,10.88
2018-12-30T00:43:05.183Z,12.53
2018-12-30T00:43:36.343Z,10.65
2018-12-30T00:44:07.858Z,11.40
2018-12-30T00:44:39.010Z,12.03
2018-12-30T00:45:10.158Z,12.10
2018-12-30T00:45:41.345Z,12.85
2018-12-30T00:46:12.535Z,13.48
2018-12-30T00:46:43.683Z,15.40
2018-12-30T00:47:14.894Z,13.83
2018-12-30T00:47:46.049Z,15.05
2018-12-30T00:48:17.200Z,13.45
2018-12-30T00:48:48.342Z,16.32
2018-12-30T00:49:19.497Z,14.47
2018-12-30T00:49:50.827Z,15.40
2018-12-30T00:50:21.979Z,17.32
2018-12-30T00:50:53.520Z,13.53
2018-12-30T00:51:24.687Z,18.30
2018-12-30T00:51:55.831Z,14.53
2018-12-30T00:52:27.024Z,16.35
2018-12-30T00:52:58.176Z,14.70
2018-12-30T00:53:29.333Z,15.40
2018-12-30T00:54:00.553Z,16.52
2018-12-30T00:54:31.721Z,15.78
2018-12-30T00:55:02.880Z,17.30
2018-12-30T00:55:34.025Z,16.67
2018-12-30T00:56:05.240Z,17.20
2018-12-30T00:56:36.803Z,15.88
2018-12-30T00:57:07.984Z,16.60
2018-12-30T00:57:39.137Z,15.68
2018-12-30T00:58:10.323Z,16.67
2018-12-30T00:58:41.472Z,15.88
2018-12-30T00:59:12.670Z,16.25
2018-12-30T00:59:43.818Z,16.70
2018-12-30T01:00:14.966Z,17.25
2018-12-30T01:00:46.118Z,15.55
2018-12-30T01:01:17.272Z,15.80
2018-12-30T01:01:48.437Z,16.75
2018-12-30T01:02:19.962Z,14.73
2018-12-30T01:02:51.104Z,15.30
2018-12-30T01:03:22.298Z,17.65
2018-12-30T01:03:53.444Z,15.55
2018-12-30T01:04:24.596Z,15.70
2018-12-30T01:04:55.793Z,16.40
2018-12-30T01:05:26.957Z,16.20
2018-12-30T01:05:58.103Z,16.37
2018-12-30T01:06:29.259Z,15.10
2018-12-30T01:07:00.414Z,15.28
2018-12-30T01:07:31.571Z,16.60
2018-12-30T01:08:02.941Z,17.80
2018-12-30T01:08:34.096Z,15.20
2018-12-30T01:09:05.243Z,15.50
2018-12-30T01:09:36.399Z,14.73
2018-12-30T01:10:07.608Z,15.13
2018-12-30T01:10:38.848Z,14.40
2018-12-30T01:11:10.001Z,14.07
2018-12-30T01:11:41.154Z,16.05
2018-12-30T01:12:12.305Z,16.30
2018-12-30T01:12:43.457Z,15.90
2018-12-30T01:13:14.626Z,19.05
2018-12-30T01:13:45.824Z,15.40
2018-12-30T01:14:16.976Z,15.20
2018-12-30T01:14:48.500Z,15.40
2018-12-30T01:15:19.653Z,16.23
2018-12-30T01:15:50.804Z,15.35
2018-12-30T01:16:21.961Z,15.03
2018-12-30T01:16:53.137Z,15.10
2018-12-30T01:17:24.293Z,16.20
2018-12-30T01:17:55.447Z,16.93
2018-12-30T01:18:26.616Z,16.35
2018-12-30T01:18:57.760Z,15.25
2018-12-30T01:19:28.932Z,15.65
2018-12-30T01:20:00.262Z,14.78
2018-12-30T01:20:31.714Z,15.63
2018-12-30T01:21:02.867Z,16.27
2018-12-30T01:21:34.030Z,15.65
2018-12-30T01:22:05.180Z,14.50
2018-12-30T01:22:36.332Z,16.17
2018-12-30T01:23:07.491Z,14.33
2018-12-30T01:23:38.697Z,16.97
2018-12-30T01:24:09.840Z,15.55
2018-12-30T01:24:40.991Z,16.10
2018-12-30T01:25:12.145Z,15.05
2018-12-30T01:25:43.299Z,15.23
2018-12-30T01:26:14.821Z,16.15
2018-12-30T01:26:45.966Z,16.27
2018-12-30T01:27:17.114Z,15.85
2018-12-30T01:27:48.301Z,15.38
2018-12-30T01:28:19.442Z,16.35
2018-12-30T01:28:50.642Z,17.00
2018-12-30T01:29:21.799Z,16.23
2018-12-30T01:29:52.953Z,16.75
2018-12-30T01:30:24.105Z,16.73
2018-12-30T01:30:55.261Z,16.12
2018-12-30T01:31:26.416Z,15.90
2018-12-30T01:31:57.573Z,15.28
2018-12-30T01:32:28.726Z,15.50
2018-12-30T01:33:00.166Z,15.50
2018-12-30T01:33:31.320Z,15.50
2018-12-30T01:34:02.517Z,16.35
2018-12-30T01:34:33.667Z,13.98
2018-12-30T01:35:04.815Z,14.50
2018-12-30T01:35:35.960Z,14.58
2018-12-30T01:36:07.113Z,14.90
2018-12-30T01:36:38.368Z,14.13
2018-12-30T01:37:09.558Z,13.68
2018-12-30T01:37:40.710Z,15.78
2018-12-30T01:38:11.856Z,15.70
2018-12-30T01:38:43.391Z,14.33
2018-12-30T01:39:14.536Z,15.25
2018-12-30T01:39:45.865Z,13.85
2018-12-30T01:40:17.012Z,14.63
2018-12-30T01:40:48.260Z,16.95
2018-12-30T01:41:19.403Z,15.25
2018-12-30T01:41:50.604Z,15.50
2018-12-30T01:42:21.801Z,16.30
2018-12-30T01:42:52.960Z,14.35
2018-12-30T01:43:24.108Z,16.82
2018-12-30T01:43:55.252Z,14.47
2018-12-30T01:44:26.406Z,15.15
2018-12-30T01:44:57.563Z,15.78
2018-12-30T01:45:29.127Z,15.18
2018-12-30T01:46:00.290Z,14.87
2018-12-30T01:46:31.442Z,14.68
2018-12-30T01:47:02.601Z,14.58
2018-12-30T01:47:33.751Z,15.05
2018-12-30T01:48:04.899Z,15.32
2018-12-30T01:48:36.056Z,14.98
2018-12-30T01:49:07.219Z,14.90
2018-12-30T01:49:38.374Z,15.75
2018-12-30T01:50:09.574Z,14.45
2018-12-30T01:50:40.719Z,14.07
2018-12-30T01:51:12.048Z,14.10
2018-12-30T01:51:43.201Z,15.00
2018-12-30T01:52:14.634Z,15.68
2018-12-30T01:52:45.785Z,16.32
2018-12-30T01:53:16.939Z,15.43
2018-12-30T01:53:48.456Z,13.68
2018-12-30T01:54:19.648Z,14.95
2018-12-30T01:54:50.800Z,14.13
2018-12-30T01:55:21.950Z,16.42
2018-12-30T01:55:53.103Z,15.93
2018-12-30T01:56:24.256Z,13.62
2018-12-30T01:56:55.395Z,15.48
2018-12-30T01:57:26.533Z,13.58
2018-12-30T01:57:58.072Z,13.53
2018-12-30T01:58:29.297Z,14.33
2018-12-30T01:59:00.496Z,14.75
2018-12-30T01:59:31.654Z,14.47
2018-12-30T02:00:02.808Z,14.68
2018-12-30T02:00:33.963Z,13.62
2018-12-30T02:01:05.116Z,14.33
2018-12-30T02:01:36.265Z,13.65
2018-12-30T02:02:07.424Z,14.00
2018-12-30T02:02:38.609Z,15.05
2018-12-30T02:03:09.768Z,14.43
2018-12-30T02:03:40.934Z,14.68
2018-12-30T02:04:12.087Z,15.23
2018-12-30T02:04:43.617Z,13.93
2018-12-30T02:05:14.769Z,12.98
2018-12-30T02:05:45.914Z,13.28
2018-12-30T02:06:17.056Z,13.85
2018-12-30T02:06:48.200Z,15.05
2018-12-30T02:07:19.351Z,14.55
2018-12-30T02:07:50.540Z,12.65
2018-12-30T02:08:21.683Z,13.53
2018-12-30T02:08:52.872Z,12.80
2018-12-30T02:09:24.015Z,12.85
2018-12-30T02:09:55.208Z,12.45
2018-12-30T02:10:26.531Z,12.65
2018-12-30T02:10:57.679Z,12.65
2018-12-30T02:11:29.110Z,13.48
2018-12-30T02:12:00.261Z,12.58
2018-12-30T02:12:31.417Z,12.82
2018-12-30T02:13:02.913Z,13.45
2018-12-30T02:13:34.105Z,14.28
2018-12-30T02:14:05.274Z,13.28
2018-12-30T02:14:36.465Z,14.05
2018-12-30T02:15:07.620Z,13.32
2018-12-30T02:15:38.780Z,13.48
2018-12-30T02:16:09.931Z,12.73
2018-12-30T02:16:41.079Z,13.45
2018-12-30T02:17:12.509Z,13.13
2018-12-30T02:17:43.708Z,13.28
2018-12-30T02:18:14.872Z,15.23
2018-12-30T02:18:46.021Z,14.50
2018-12-30T02:19:17.166Z,13.53
2018-12-30T02:19:48.323Z,14.40
2018-12-30T02:20:19.525Z,12.95
2018-12-30T02:20:50.673Z,13.32
2018-12-30T02:21:21.821Z,12.45
2018-12-30T02:21:52.975Z,13.30
2018-12-30T02:22:24.122Z,12.95
2018-12-30T02:22:55.279Z,12.70
2018-12-30T02:23:26.488Z,13.62
2018-12-30T02:23:57.923Z,13.28
2018-12-30T02:24:29.079Z,12.13
2018-12-30T02:25:00.319Z,12.90
2018-12-30T02:25:31.500Z,13.50
2018-12-30T02:26:02.685Z,12.03
2018-12-30T02:26:33.841Z,13.00
2018-12-30T02:27:05.000Z,11.70
2018-12-30T02:27:36.208Z,11.95
2018-12-30T02:28:07.355Z,12.37
2018-12-30T02:28:38.519Z,12.78
2018-12-30T02:29:09.678Z,12.50
2018-12-30T02:29:40.823Z,13.75
2018-12-30T02:30:11.979Z,12.43
2018-12-30T02:30:43.511Z,11.88
2018-12-30T02:31:14.663Z,11.83
2018-12-30T02:31:45.811Z,12.37
2018-12-30T02:32:16.962Z,11.97
2018-12-30T02:32:48.094Z,12.68
2018-12-30T02:33:20.582Z,12.98
2018-12-30T02:33:51.731Z,12.10
2018-12-30T02:34:22.897Z,10.82
2018-12-30T02:34:54.045Z,12.65
2018-12-30T02:35:25.215Z,12.03
2018-12-30T02:35:56.366Z,11.73
2018-12-30T02:36:27.519Z,14.15
2018-12-30T02:36:58.669Z,10.88
2018-12-30T02:37:30.036Z,12.90
2018-12-30T02:38:01.187Z,11.55
2018-12-30T02:38:32.340Z,12.50
2018-12-30T02:39:03.495Z,12.53
2018-12-30T02:39:34.701Z,11.48
2018-12-30T02:40:05.921Z,11.28
2018-12-30T02:40:37.070Z,11.93
2018-12-30T02:41:08.239Z,11.93
2018-12-30T02:41:39.396Z,11.70
2018-12-30T02:42:10.554Z,12.95
2018-12-30T02:42:41.706Z,12.23
2018-12-30T02:43:12.896Z,11.97
2018-12-30T02:43:44.044Z,12.73
2018-12-30T02:44:15.564Z,10.68
2018-12-30T02:44:46.712Z,11.85
2018-12-30T02:45:17.903Z,11.15
2018-12-30T02:45:49.098Z,12.23
2018-12-30T02:46:22.712Z,12.63
2018-12-30T02:46:54.954Z,10.08
2018-12-30T02:47:26.112Z,11.38
2018-12-30T02:47:57.261Z,11.83
2018-12-30T02:48:28.415Z,11.55
2018-12-30T02:48:59.591Z,11.12
2018-12-30T02:49:30.774Z,12.15
2018-12-30T02:50:01.920Z,12.80
2018-12-30T02:50:33.073Z,12.28
2018-12-30T02:51:04.221Z,11.83
2018-12-30T02:51:35.369Z,13.55
2018-12-30T02:52:06.898Z,10.10
2018-12-30T02:52:38.079Z,11.10
2018-12-30T02:53:09.203Z,10.60
2018-12-30T02:53:40.353Z,10.93
2018-12-30T02:54:11.544Z,12.07
2018-12-30T02:54:42.698Z,10.18
2018-12-30T02:55:13.902Z,10.25
2018-12-30T02:55:45.041Z,10.75
2018-12-30T02:56:16.283Z,11.28
2018-12-30T02:56:47.438Z,10.48
2018-12-30T02:57:18.597Z,10.85
2018-12-30T02:57:49.751Z,11.60
2018-12-30T02:58:20.950Z,10.23
2018-12-30T02:58:52.431Z,10.20
2018-12-30T02:59:23.549Z,10.20
2018-12-30T02:59:54.693Z,11.85
2018-12-30T03:00:25.844Z,10.23
2018-12-30T03:00:56.997Z,11.05
2018-12-30T03:01:28.161Z,9.68
2018-12-30T03:01:59.309Z,9.68
2018-12-30T03:02:30.486Z,9.58
2018-12-30T03:03:01.625Z,10.23
2018-12-30T03:03:32.770Z,10.63
2018-12-30T03:04:03.923Z,9.30
2018-12-30T03:04:35.121Z,10.75
2018-12-30T03:05:06.267Z,9.83
2018-12-30T03:05:37.696Z,9.60
2018-12-30T03:06:08.854Z,9.95
2018-12-30T03:06:40.281Z,9.98
2018-12-30T03:07:11.432Z,9.08
2018-12-30T03:07:42.601Z,9.35
2018-12-30T03:08:13.745Z,9.38
2018-12-30T03:08:44.884Z,9.85
2018-12-30T03:09:16.066Z,9.48
2018-12-30T03:09:47.207Z,9.75
2018-12-30T03:10:18.355Z,10.40
2018-12-30T03:10:49.491Z,9.18
2018-12-30T03:11:20.684Z,10.13
2018-12-30T03:11:51.820Z,9.50
2018-12-30T03:12:23.037Z,9.53
2018-12-30T03:12:54.181Z,9.03
2018-12-30T03:13:25.339Z,9.03
2018-12-30T03:13:56.474Z,8.93
2018-12-30T03:14:27.627Z,9.98
2018-12-30T03:14:58.768Z,8.93
2018-12-30T03:15:29.949Z,9.55
2018-12-30T03:16:03.205Z,9.13
2018-12-30T03:16:33.969Z,9.83
2018-12-30T03:17:05.118Z,9.78
2018-12-30T03:17:36.267Z,9.35
2018-12-30T03:18:07.411Z,9.63
2018-12-30T03:18:38.611Z,10.88
2018-12-30T03:19:09.766Z,9.28
2018-12-30T03:19:40.915Z,8.63
2018-12-30T03:20:12.426Z,9.88
2018-12-30T03:20:43.627Z,9.43
2018-12-30T03:21:14.827Z,9.60
2018-12-30T03:21:46.035Z,9.58
2018-12-30T03:22:17.257Z,9.30
2018-12-30T03:22:48.418Z,10.00
2018-12-30T03:23:19.565Z,9.45
2018-12-30T03:23:50.707Z,9.35
2018-12-30T03:24:21.856Z,9.90
2018-12-30T03:24:53.013Z,9.48
2018-12-30T03:25:24.144Z,9.38
2018-12-30T03:25:55.289Z,9.33
2018-12-30T03:26:26.468Z,9.33
2018-12-30T03:26:57.614Z,8.88
2018-12-30T03:27:28.760Z,8.43
2018-12-30T03:27:59.900Z,8.38
2018-12-30T03:28:31.047Z,9.95
2018-12-30T03:29:02.185Z,9.30
2018-12-30T03:29:33.341Z,8.83
2018-12-30T03:30:04.501Z,9.35
2018-12-30T03:30:35.732Z,9.53
2018-12-30T03:31:06.894Z,9.13
2018-12-30T03:31:38.029Z,9.48
2018-12-30T03:32:09.182Z,9.35
2018-12-30T03:32:40.409Z,8.83
2018-12-30T03:33:11.572Z,9.25
2018-12-30T03:33:42.715Z,8.83
2018-12-30T03:34:13.876Z,8.73
2018-12-30T03:34:45.054Z,8.80
2018-12-30T03:35:16.188Z,9.33
2018-12-30T03:35:47.336Z,9.43
2018-12-30T03:36:18.519Z,9.60
2018-12-30T03:36:49.663Z,9.65
2018-12-30T03:37:20.818Z,11.63
2018-12-30T03:37:51.961Z,8.98
2018-12-30T03:38:23.100Z,9.08
2018-12-30T03:38:54.284Z,9.78
2018-12-30T03:39:25.430Z,9.30
2018-12-30T03:39:56.566Z,9.68
2018-12-30T03:40:27.712Z,11.00
2018-12-30T03:40:58.856Z,8.70
2018-12-30T03:41:30.002Z,9.38
2018-12-30T03:42:01.224Z,8.93
2018-12-30T03:42:32.370Z,9.23
2018-12-30T03:43:03.519Z,10.23
2018-12-30T03:43:34.663Z,8.83
2018-12-30T03:44:05.853Z,9.58
2018-12-30T03:44:37.001Z,9.70
2018-12-30T03:45:08.225Z,9.18
2018-12-30T03:45:39.374Z,10.53
2018-12-30T03:46:10.556Z,9.13
2018-12-30T03:46:41.746Z,8.93
2018-12-30T03:47:12.889Z,9.43
2018-12-30T03:47:44.037Z,9.10
2018-12-30T03:48:15.179Z,8.93
2018-12-30T03:48:46.338Z,10.18
2018-12-30T03:49:17.531Z,8.28
2018-12-30T03:49:48.678Z,9.20
2018-12-30T03:50:19.822Z,9.85
2018-12-30T03:50:50.970Z,8.85
2018-12-30T03:51:22.116Z,9.88
2018-12-30T03:51:53.296Z,9.23
2018-12-30T03:52:24.441Z,10.35
2018-12-30T03:52:55.586Z,8.58
2018-12-30T03:53:26.734Z,8.93
2018-12-30T03:53:57.889Z,10.53
2018-12-30T03:54:29.066Z,9.63
2018-12-30T03:55:00.270Z,8.80
2018-12-30T03:55:31.399Z,9.13
2018-12-30T03:56:02.607Z,9.78
2018-12-30T03:56:35.714Z,9.45
2018-12-30T03:57:06.577Z,8.98
2018-12-30T03:57:37.724Z,9.75
2018-12-30T03:58:08.875Z,9.03
2018-12-30T03:58:40.067Z,10.32
2018-12-30T03:59:11.214Z,8.48
2018-12-30T03:59:42.407Z,9.40
2018-12-30T04:00:13.555Z,8.60
2018-12-30T04:00:44.702Z,8.75
2018-12-30T04:01:15.845Z,9.83
2018-12-30T04:01:47.005Z,8.75
2018-12-30T04:02:18.156Z,10.00
2018-12-30T04:02:49.314Z,9.00
2018-12-30T04:03:20.465Z,9.10
2018-12-30T04:03:51.631Z,8.08
2018-12-30T04:04:22.762Z,9.25
2018-12-30T04:04:53.962Z,9.40
2018-12-30T04:05:25.233Z,7.83
2018-12-30T04:05:56.374Z,8.83
2018-12-30T04:06:27.529Z,8.45
2018-12-30T04:06:58.672Z,8.93
2018-12-30T04:07:31.874Z,8.65
2018-12-30T04:08:02.753Z,8.58
2018-12-30T04:08:33.900Z,8.10
2018-12-30T04:09:05.072Z,9.80
2018-12-30T04:09:36.278Z,8.53
2018-12-30T04:10:07.422Z,8.75
2018-12-30T04:10:38.596Z,8.98
2018-12-30T04:11:09.757Z,7.47
2018-12-30T04:11:40.914Z,8.90
2018-12-30T04:12:12.060Z,8.00
2018-12-30T04:12:43.213Z,10.50
2018-12-30T04:13:14.359Z,8.30
2018-12-30T04:13:45.507Z,8.30
2018-12-30T04:14:16.748Z,8.83
2018-12-30T04:14:47.878Z,8.90
2018-12-30T04:15:19.026Z,7.33
2018-12-30T04:15:50.213Z,7.85
2018-12-30T04:16:21.406Z,7.87
2018-12-30T04:16:52.557Z,8.80
2018-12-30T04:17:23.701Z,8.10
2018-12-30T04:17:54.840Z,8.10
2018-12-30T04:18:25.985Z,8.45
2018-12-30T04:18:57.135Z,8.78
2018-12-30T04:19:28.290Z,7.83
2018-12-30T04:19:59.429Z,7.92
2018-12-30T04:20:30.582Z,7.92
2018-12-30T04:21:01.730Z,8.68
2018-12-30T04:21:32.908Z,8.40
2018-12-30T04:22:04.064Z,9.35
2018-12-30T04:22:35.197Z,8.20
2018-12-30T04:23:06.348Z,7.53
2018-12-30T04:23:37.497Z,7.70
2018-12-30T04:24:08.641Z,7.37
2018-12-30T04:24:39.794Z,8.10
2018-12-30T04:25:10.937Z,9.13
2018-12-30T04:25:42.088Z,8.08
2018-12-30T04:26:13.295Z,9.30
2018-12-30T04:26:44.439Z,7.72
2018-12-30T04:27:18.420Z,8.30
2018-12-30T04:27:49.558Z,8.00
2018-12-30T04:28:20.775Z,7.60
2018-12-30T04:28:51.936Z,8.45
2018-12-30T04:29:23.084Z,7.95
2018-12-30T04:29:54.235Z,7.95
2018-12-30T04:30:25.392Z,7.12
2018-12-30T04:30:56.551Z,8.38
2018-12-30T04:31:27.746Z,7.55
2018-12-30T04:31:58.946Z,7.00
2018-12-30T04:32:30.047Z,7.97
2018-12-30T04:33:01.193Z,8.08
2018-12-30T04:33:32.356Z,7.45
2018-12-30T04:34:03.511Z,7.90
2018-12-30T04:34:34.651Z,8.00
2018-12-30T04:35:05.793Z,7.95
2018-12-30T04:35:36.941Z,7.60
2018-12-30T04:36:08.090Z,8.13
2018-12-30T04:36:39.285Z,8.23
2018-12-30T04:37:10.426Z,8.33
2018-12-30T04:37:41.572Z,8.20
2018-12-30T04:38:12.732Z,8.65
2018-12-30T04:38:43.881Z,7.50
2018-12-30T04:39:15.218Z,7.78
2018-12-30T04:39:46.370Z,8.03
2018-12-30T04:40:17.529Z,7.97
2018-12-30T04:40:48.660Z,7.92
2018-12-30T04:41:19.817Z,9.28
2018-12-30T04:41:50.967Z,8.15
2018-12-30T04:42:22.107Z,7.62
2018-12-30T04:42:53.304Z,7.37
2018-12-30T04:43:24.441Z,8.55
2018-12-30T04:43:55.594Z,7.97
2018-12-30T04:44:26.745Z,7.92
2018-12-30T04:44:57.889Z,7.80
2018-12-30T04:45:29.056Z,7.60
2018-12-30T04:46:00.198Z,8.58
2018-12-30T04:46:31.350Z,7.20
2018-12-30T04:47:02.533Z,7.53
2018-12-30T04:47:33.678Z,8.60
2018-12-30T04:48:04.836Z,8.78
2018-12-30T04:48:35.978Z,8.23
2018-12-30T04:49:07.119Z,7.60
2018-12-30T04:49:38.295Z,8.08
2018-12-30T04:50:09.445Z,7.47
2018-12-30T04:50:40.633Z,7.33
2018-12-30T04:51:11.793Z,7.45
2018-12-30T04:51:43.004Z,8.23
2018-12-30T04:52:14.209Z,7.72
2018-12-30T04:52:45.365Z,6.90
2018-12-30T04:53:16.519Z,8.55
2018-12-30T04:53:47.660Z,7.40
2018-12-30T04:54:18.829Z,8.30
2018-12-30T04:54:49.960Z,9.33
2018-12-30T04:55:21.095Z,8.73
2018-12-30T04:55:54.548Z,7.80
2018-12-30T04:56:26.651Z,7.92
2018-12-30T04:56:57.813Z,7.72
2018-12-30T04:57:28.976Z,8.78
2018-12-30T04:58:00.120Z,8.30
2018-12-30T04:58:31.328Z,8.98
2018-12-30T04:59:02.427Z,8.30
2018-12-30T04:59:33.636Z,9.58
2018-12-30T05:00:04.728Z,8.50
2018-12-30T05:00:35.876Z,8.08
2018-12-30T05:01:07.110Z,7.85
2018-12-30T05:01:38.256Z,10.23
2018-12-30T05:02:09.409Z,8.00
2018-12-30T05:02:40.547Z,8.35
2018-12-30T05:03:11.690Z,7.92
2018-12-30T05:03:42.832Z,8.33
2018-12-30T05:04:13.981Z,8.30
2018-12-30T05:04:45.131Z,7.60
2018-12-30T05:05:16.280Z,9.33
2018-12-30T05:05:48.843Z,8.43
2018-12-30T05:06:20.013Z,10.08
2018-12-30T05:06:51.208Z,8.43
2018-12-30T05:07:22.380Z,8.43
2018-12-30T05:07:53.534Z,8.13
2018-12-30T05:08:24.789Z,8.10
2018-12-30T05:08:55.945Z,8.15
2018-12-30T05:09:27.091Z,8.75
2018-12-30T05:09:58.237Z,8.20
2018-12-30T05:10:29.388Z,8.23
2018-12-30T05:11:00.569Z,8.28
2018-12-30T05:11:31.719Z,9.05
2018-12-30T05:12:02.865Z,8.90
2018-12-30T05:12:34.062Z,8.28
2018-12-30T05:13:05.213Z,7.92
2018-12-30T05:13:36.349Z,9.08
2018-12-30T05:14:07.511Z,8.08
2018-12-30T05:14:38.641Z,8.30
2018-12-30T05:15:09.785Z,8.63
2018-12-30T05:15:40.928Z,9.00
2018-12-30T05:16:12.086Z,8.30
2018-12-30T05:16:43.224Z,10.40
2018-12-30T05:17:14.367Z,9.00
2018-12-30T05:17:45.569Z,10.35
2018-12-30T05:18:16.711Z,8.60
2018-12-30T05:18:47.876Z,8.83
2018-12-30T05:19:19.022Z,9.38
2018-12-30T05:19:50.195Z,8.38
2018-12-30T05:20:21.349Z,8.95
2018-12-30T05:20:52.506Z,9.23
2018-12-30T05:21:23.655Z,7.72
2018-12-30T05:21:54.801Z,8.75
2018-12-30T05:22:33.675Z,8.85
2018-12-30T05:22:58.886Z,9.05
2018-12-30T05:23:30.033Z,9.30
2018-12-30T05:24:01.181Z,8.93
2018-12-30T05:24:32.329Z,8.75
2018-12-30T05:25:03.534Z,9.20
2018-12-30T05:25:34.654Z,8.73
2018-12-30T05:26:05.802Z,9.88
2018-12-30T05:26:37.020Z,8.98
2018-12-30T05:27:08.127Z,8.85
2018-12-30T05:27:39.277Z,8.80
2018-12-30T05:28:10.559Z,9.80
2018-12-30T05:28:41.663Z,8.58
2018-12-30T05:29:12.814Z,9.75
2018-12-30T05:29:43.991Z,8.93
2018-12-30T05:30:15.138Z,8.43
2018-12-30T05:30:46.327Z,9.30
2018-12-30T05:31:17.459Z,8.23
2018-12-30T05:31:48.606Z,9.20
2018-12-30T05:32:19.776Z,8.70
2018-12-30T05:32:50.918Z,8.43
2018-12-30T05:33:22.058Z,8.85
2018-12-30T05:33:53.243Z,8.80
2018-12-30T05:34:24.418Z,8.70
2018-12-30T05:34:57.039Z,8.33
2018-12-30T05:35:28.203Z,8.18
2018-12-30T05:35:59.382Z,8.55
2018-12-30T05:36:30.525Z,8.60
2018-12-30T05:37:01.675Z,9.45
2018-12-30T05:37:32.816Z,9.23
2018-12-30T05:38:03.967Z,8.80
2018-12-30T05:38:35.156Z,8.75
2018-12-30T05:39:06.294Z,8.95
2018-12-30T05:39:37.446Z,9.28
2018-12-30T05:40:08.589Z,8.30
2018-12-30T05:40:39.785Z,8.48
2018-12-30T05:41:11.004Z,7.65
2018-12-30T05:41:42.148Z,8.30
2018-12-30T05:42:13.416Z,8.08
2018-12-30T05:42:44.573Z,8.55
2018-12-30T05:43:15.745Z,8.03
2018-12-30T05:43:46.878Z,8.55
2018-12-30T05:44:18.028Z,7.47
2018-12-30T05:44:49.169Z,8.50
2018-12-30T05:45:20.315Z,8.45
2018-12-30T05:45:51.465Z,7.95
2018-12-30T05:46:22.602Z,8.88
2018-12-30T05:46:53.811Z,7.92
2018-12-30T05:47:24.959Z,8.98
2018-12-30T05:47:56.108Z,7.75
2018-12-30T05:48:27.250Z,7.75
2018-12-30T05:48:58.522Z,7.95
2018-12-30T05:49:29.685Z,8.05
2018-12-30T05:50:00.824Z,10.38
2018-12-30T05:50:31.979Z,9.28
2018-12-30T05:51:03.200Z,9.23
2018-12-30T05:51:34.335Z,8.55
2018-12-30T05:52:05.549Z,8.75
2018-12-30T05:52:41.812Z,8.30
2018-12-30T05:53:09.556Z,7.95
2018-12-30T05:53:40.700Z,7.83
2018-12-30T05:54:11.859Z,7.55
2018-12-30T05:54:43.066Z,7.97
2018-12-30T05:55:14.211Z,8.30
2018-12-30T05:55:45.358Z,8.15
2018-12-30T05:56:16.509Z,7.60
2018-12-30T05:56:47.681Z,8.00
2018-12-30T05:57:18.862Z,8.30
2018-12-30T05:57:50.016Z,9.03
2018-12-30T05:58:21.174Z,8.58
2018-12-30T05:58:52.317Z,8.93
2018-12-30T05:59:23.509Z,8.48
2018-12-30T05:59:54.653Z,8.60
2018-12-30T06:00:25.803Z,8.55
2018-12-30T06:00:56.968Z,9.08
2018-12-30T06:01:28.160Z,8.90
2018-12-30T06:01:59.310Z,8.70
2018-12-30T06:02:30.497Z,8.48
2018-12-30T06:03:01.646Z,8.25
2018-12-30T06:03:32.800Z,8.48
2018-12-30T06:04:03.960Z,8.25
2018-12-30T06:04:35.096Z,7.55
2018-12-30T06:05:06.241Z,9.68
2018-12-30T06:05:37.405Z,8.00
2018-12-30T06:06:08.555Z,7.67
2018-12-30T06:06:39.702Z,9.08
2018-12-30T06:07:10.889Z,10.23
2018-12-30T06:07:42.080Z,7.60
2018-12-30T06:08:13.175Z,8.80
2018-12-30T06:08:44.324Z,8.60
2018-12-30T06:09:15.470Z,8.38
2018-12-30T06:09:46.606Z,8.03
2018-12-30T06:10:17.764Z,8.80
2018-12-30T06:10:48.905Z,8.20
2018-12-30T06:11:20.068Z,8.18
2018-12-30T06:11:51.220Z,9.78
2018-12-30T06:12:22.489Z,8.40
2018-12-30T06:12:53.635Z,8.35
2018-12-30T06:13:24.783Z,7.78
2018-12-30T06:13:55.930Z,9.70
2018-12-30T06:14:27.081Z,8.30
2018-12-30T06:14:58.283Z,8.38
2018-12-30T06:15:29.438Z,8.85
2018-12-30T06:16:00.585Z,7.70
2018-12-30T06:16:31.722Z,7.50
2018-12-30T06:17:02.874Z,8.65
2018-12-30T06:17:34.023Z,8.73
2018-12-30T06:18:05.170Z,8.43
2018-12-30T06:18:38.667Z,8.28
2018-12-30T06:19:09.822Z,8.55
2018-12-30T06:19:40.965Z,8.40
2018-12-30T06:20:12.162Z,8.23
2018-12-30T06:20:43.319Z,8.23
2018-12-30T06:21:14.453Z,7.03
2018-12-30T06:21:45.602Z,7.22
2018-12-30T06:22:16.759Z,8.20
2018-12-30T06:22:49.610Z,7.75
2018-12-30T06:23:20.788Z,7.50
2018-12-30T06:23:51.941Z,7.90
2018-12-30T06:24:23.128Z,8.68
2018-12-30T06:24:54.299Z,8.98
2018-12-30T06:25:25.457Z,8.68
2018-12-30T06:25:56.600Z,8.03
2018-12-30T06:26:27.752Z,8.28
2018-12-30T06:26:58.902Z,8.75
2018-12-30T06:27:30.053Z,7.78
2018-12-30T06:28:01.451Z,8.25
2018-12-30T06:28:32.680Z,7.78
2018-12-30T06:29:03.835Z,8.55
2018-12-30T06:29:34.985Z,8.98
2018-12-30T06:30:06.139Z,8.25
2018-12-30T06:30:37.333Z,8.88
2018-12-30T06:31:08.430Z,8.53
2018-12-30T06:31:39.584Z,8.78
2018-12-30T06:32:10.737Z,8.65
2018-12-30T06:32:41.920Z,9.13
2018-12-30T06:33:13.071Z,8.25
2018-12-30T06:33:44.230Z,9.05
2018-12-30T06:34:15.436Z,8.80
2018-12-30T06:34:46.614Z,8.15
2018-12-30T06:35:17.771Z,9.03
2018-12-30T06:35:48.916Z,9.35
2018-12-30T06:36:20.067Z,9.18
2018-12-30T06:36:51.216Z,9.13
2018-12-30T06:37:22.369Z,9.00
2018-12-30T06:37:53.577Z,10.72
2018-12-30T06:38:24.715Z,9.43
2018-12-30T06:38:55.867Z,8.98
2018-12-30T06:39:27.016Z,8.85
2018-12-30T06:39:58.188Z,9.23
2018-12-30T06:40:29.316Z,10.10
2018-12-30T06:41:00.470Z,9.73
2018-12-30T06:41:31.613Z,9.23
2018-12-30T06:42:02.768Z,9.13
2018-12-30T06:42:33.922Z,9.55
2018-12-30T06:43:05.138Z,10.25
2018-12-30T06:43:36.284Z,9.33
2018-12-30T06:44:07.435Z,10.08
2018-12-30T06:44:38.580Z,8.53
2018-12-30T06:45:09.726Z,8.73
2018-12-30T06:45:40.873Z,8.40
2018-12-30T06:46:12.014Z,8.90
2018-12-30T06:46:43.171Z,8.40
2018-12-30T06:47:14.307Z,7.97
2018-12-30T06:47:45.450Z,8.85
2018-12-30T06:48:16.641Z,8.83
2018-12-30T06:48:47.793Z,8.43
2018-12-30T06:49:18.937Z,8.38